Boston, Massachusetts
Traffic Map
Current Weather Conditions
Boston, Massachusetts
Scattered Clouds
Scattered Clouds
29°
Feels Like: 30°
Wind Chill: 29° Ceiling: Unl
Heat Index: 30° Visibility: 10mi
Dew Point: 18° Wind: 14mph
Humidity: 53% Direction: 180° (S)
Pressure: 29.81in Gusts: 0mph
Raw Report DataKBOS 041654Z 18012KT 10SM SCT048 SCT250 29/18 A2981 RMK AO2 SLP093 T02890183
Traffic Incident Summary
Active as of:
Severity:
Category:
InformationThere was an issue retrieving the traffic information for this location. Please try a different location or try again shortly.
Advertisements
Track Severe Weather on mobile